createdAt,value
2019-06-19T00:01:17.257Z,96463.64
2019-06-19T00:03:43.259Z,96471.13
2019-06-19T00:06:09.180Z,96466.05
2019-06-19T00:08:35.025Z,96452.94
2019-06-19T00:11:03.238Z,96459.21
2019-06-19T00:13:28.695Z,96459.56
2019-06-19T00:15:54.549Z,96460.97
2019-06-19T00:18:22.513Z,96459.73
2019-06-19T00:20:48.130Z,96456.63
2019-06-19T00:23:14.114Z,96457.38
2019-06-19T00:25:40.185Z,96460.59
2019-06-19T00:28:06.097Z,96453.27
2019-06-19T00:30:32.497Z,96455.70
2019-06-19T00:32:58.548Z,96453.22
2019-06-19T00:35:24.384Z,96457.85
2019-06-19T00:37:50.860Z,96455.00
2019-06-19T00:40:20.624Z,96452.96
2019-06-19T00:42:46.244Z,96456.70
2019-06-19T00:45:12.295Z,96452.83
2019-06-19T00:47:40.609Z,96449.61
2019-06-19T00:50:06.292Z,96454.25
2019-06-19T00:52:32.116Z,96447.83
2019-06-19T00:55:02.643Z,96450.06
2019-06-19T00:57:30.846Z,96448.37
2019-06-19T00:59:58.646Z,96443.23
2019-06-19T01:02:24.038Z,96439.44
2019-06-19T01:04:51.960Z,96437.30
2019-06-19T01:07:17.762Z,96429.91
2019-06-19T01:09:43.605Z,96430.83
2019-06-19T01:12:11.181Z,96427.52
2019-06-19T01:14:37.154Z,96424.96
2019-06-19T01:17:03.181Z,96426.56
2019-06-19T01:19:31.339Z,96416.05
2019-06-19T01:21:57.171Z,96365.36
2019-06-19T01:24:23.014Z,96415.50
2019-06-19T01:26:51.069Z,96414.30
2019-06-19T01:29:16.622Z,96424.13
2019-06-19T01:31:42.496Z,96423.25
2019-06-19T01:34:08.466Z,96429.17
2019-06-19T01:36:34.339Z,96421.52
2019-06-19T01:39:00.702Z,96428.05
2019-06-19T01:41:26.727Z,96431.80
2019-06-19T01:43:52.546Z,96427.91
2019-06-19T01:46:20.898Z,96417.19
2019-06-19T01:48:46.263Z,96420.50
2019-06-19T01:51:12.234Z,96415.95
2019-06-19T01:54:17.419Z,96421.20
2019-06-19T01:56:44.327Z,96418.84
2019-06-19T01:59:10.774Z,96421.81
2019-06-19T02:01:36.864Z,96415.95
2019-06-19T02:04:03.194Z,96420.19
2019-06-19T02:06:31.703Z,96408.08
2019-06-19T02:08:56.826Z,96413.39
2019-06-19T02:11:22.705Z,96408.05
2019-06-19T02:13:48.546Z,96411.73
2019-06-19T02:16:14.405Z,96415.73
2019-06-19T02:18:41.821Z,96411.91
2019-06-19T02:21:10.732Z,96412.70
2019-06-19T02:23:35.696Z,96414.52
2019-06-19T02:26:01.535Z,96414.44
2019-06-19T02:28:27.398Z,96411.48
2019-06-19T02:31:04.815Z,96412.39
2019-06-19T02:33:22.223Z,96413.20
2019-06-19T02:35:51.531Z,96411.37
2019-06-19T02:38:16.002Z,96409.79
2019-06-19T02:40:41.852Z,96413.65
2019-06-19T02:43:07.690Z,96414.28
2019-06-19T02:45:33.598Z,96410.72
2019-06-19T02:47:59.431Z,96412.50
2019-06-19T02:50:25.280Z,96406.59
2019-06-19T02:52:51.252Z,96410.02
2019-06-19T02:55:17.142Z,96404.45
2019-06-19T02:57:43.066Z,96403.78
2019-06-19T03:00:09.423Z,96405.78
2019-06-19T03:02:35.290Z,96411.59
2019-06-19T03:05:01.232Z,96413.30
2019-06-19T03:07:27.117Z,96413.32
2019-06-19T03:09:52.948Z,96421.79
2019-06-19T03:12:18.803Z,96421.31
2019-06-19T03:14:44.780Z,96421.02
2019-06-19T03:17:10.671Z,96416.22
2019-06-19T03:19:36.505Z,96419.52
2019-06-19T03:22:02.338Z,96421.09
2019-06-19T03:24:28.191Z,96422.72
2019-06-19T03:26:54.038Z,96418.61
2019-06-19T03:29:19.892Z,96421.86
2019-06-19T03:31:45.736Z,96423.75
2019-06-19T03:34:11.595Z,96419.30
2019-06-19T03:36:37.432Z,96416.89
2019-06-19T03:39:04.582Z,96422.83
2019-06-19T03:41:30.429Z,96424.34
2019-06-19T03:43:56.275Z,96420.89
2019-06-19T03:46:22.435Z,96418.12
2019-06-19T03:48:48.314Z,96412.25
2019-06-19T03:51:14.173Z,96415.78
2019-06-19T03:53:40.023Z,96415.34
2019-06-19T03:56:05.887Z,96407.34
2019-06-19T03:58:31.726Z,96399.88
2019-06-19T04:00:57.880Z,96394.75
2019-06-19T04:03:23.822Z,96397.06
2019-06-19T04:05:49.677Z,96401.02
2019-06-19T04:08:15.536Z,96405.10
2019-06-19T04:10:41.515Z,96409.43
2019-06-19T04:13:07.337Z,96396.19
2019-06-19T04:15:33.202Z,96396.14
2019-06-19T04:17:59.029Z,96390.69
2019-06-19T04:20:24.848Z,96390.82
2019-06-19T04:22:50.687Z,96402.06
2019-06-19T04:25:16.525Z,96399.55
2019-06-19T04:27:42.384Z,96394.63
2019-06-19T04:30:10.524Z,96398.17
2019-06-19T04:32:36.396Z,96408.70
2019-06-19T04:35:03.739Z,96410.08
2019-06-19T04:37:31.559Z,96412.98
2019-06-19T04:39:57.523Z,96404.69
2019-06-19T04:42:23.763Z,96401.14
2019-06-19T04:44:49.820Z,96399.16
2019-06-19T04:47:15.714Z,96400.27
2019-06-19T04:49:41.598Z,96408.97
2019-06-19T04:52:07.579Z,96404.60
2019-06-19T04:54:34.727Z,96403.73
2019-06-19T04:57:00.660Z,96403.83
2019-06-19T04:59:27.073Z,96414.06
2019-06-19T05:01:53.080Z,96409.92
2019-06-19T05:04:18.920Z,96409.98
2019-06-19T05:06:44.863Z,96416.99
2019-06-19T05:09:10.749Z,96415.02
2019-06-19T05:11:36.634Z,96414.38
2019-06-19T05:14:02.834Z,96419.44
2019-06-19T05:16:28.824Z,96417.81
2019-06-19T05:18:54.749Z,96424.69
2019-06-19T05:21:20.662Z,96427.48
2019-06-19T05:23:46.645Z,96424.23
2019-06-19T05:26:12.648Z,96424.16
2019-06-19T05:28:38.531Z,96424.79
2019-06-19T05:31:04.489Z,96430.16
2019-06-19T05:33:30.506Z,96420.39
2019-06-19T05:35:56.440Z,96424.38
2019-06-19T05:38:22.405Z,96421.02
2019-06-19T05:40:48.355Z,96415.19
2019-06-19T05:43:14.354Z,96417.38
2019-06-19T05:45:40.321Z,96414.41
2019-06-19T05:48:06.219Z,96422.02
2019-06-19T05:50:32.213Z,96421.75
2019-06-19T05:52:58.537Z,96420.83
2019-06-19T05:55:24.531Z,96416.00
2019-06-19T05:57:50.521Z,96418.95
2019-06-19T06:00:20.326Z,96420.64
2019-06-19T06:02:51.980Z,96418.44
2019-06-19T06:05:14.278Z,96419.23
2019-06-19T06:07:40.143Z,96416.92
2019-06-19T06:10:06.229Z,96426.14
2019-06-19T06:12:32.100Z,96432.65
2019-06-19T06:14:57.993Z,96430.16
2019-06-19T06:17:24.004Z,96429.56
2019-06-19T06:19:51.830Z,96436.81
2019-06-19T06:22:19.735Z,96431.81
2019-06-19T06:24:47.279Z,96428.36
2019-06-19T06:27:13.343Z,96423.75
2019-06-19T06:29:39.371Z,96422.76
2019-06-19T06:32:05.227Z,96426.05
2019-06-19T06:34:31.204Z,96431.65
2019-06-19T06:36:57.225Z,96425.87
2019-06-19T06:39:23.351Z,96424.17
2019-06-19T06:41:49.213Z,96423.02
2019-06-19T06:44:15.225Z,96421.27
2019-06-19T06:46:41.305Z,96426.09
2019-06-19T06:49:07.275Z,96420.69
2019-06-19T06:51:33.245Z,96422.61
2019-06-19T06:53:59.180Z,96416.65
2019-06-19T06:56:25.172Z,96419.69
2019-06-19T06:58:51.087Z,96422.22
2019-06-19T07:01:17.053Z,96416.44
2019-06-19T07:03:42.883Z,96418.53
2019-06-19T07:06:08.808Z,96421.94
2019-06-19T07:08:34.658Z,96417.45
2019-06-19T07:11:00.732Z,96422.47
2019-06-19T07:13:26.611Z,96424.31
2019-06-19T07:15:52.456Z,96416.75
2019-06-19T07:18:18.295Z,96419.01
2019-06-19T07:20:44.238Z,96415.70
2019-06-19T07:23:10.067Z,96416.00
2019-06-19T07:25:36.032Z,96422.25
2019-06-19T07:28:01.873Z,96418.11
2019-06-19T07:30:27.716Z,96421.69
2019-06-19T07:32:53.569Z,96420.28
2019-06-19T07:35:19.409Z,96422.20
2019-06-19T07:37:45.364Z,96416.13
2019-06-19T07:40:11.266Z,96412.84
2019-06-19T07:42:37.083Z,96412.77
2019-06-19T07:45:05.928Z,96416.67
2019-06-19T07:47:31.766Z,96416.41
2019-06-19T07:49:57.623Z,96418.34
2019-06-19T07:52:23.474Z,96420.88
2019-06-19T07:54:49.299Z,96418.84
2019-06-19T07:57:15.150Z,96420.20
2019-06-19T07:59:40.980Z,96420.39
2019-06-19T08:02:06.824Z,96419.06
2019-06-19T08:04:32.688Z,96415.59
2019-06-19T08:06:58.519Z,96413.41
2019-06-19T08:09:24.367Z,96416.17
2019-06-19T08:11:50.203Z,96407.66
2019-06-19T08:14:16.063Z,96402.09
2019-06-19T08:16:41.903Z,96411.34
2019-06-19T08:19:07.761Z,96399.77
2019-06-19T08:21:33.588Z,96403.49
2019-06-19T08:23:59.434Z,96396.67
2019-06-19T08:26:25.258Z,96394.75
2019-06-19T08:28:51.087Z,96386.83
2019-06-19T08:31:16.963Z,96401.21
2019-06-19T08:33:42.746Z,96405.47
2019-06-19T08:36:08.582Z,96399.30
2019-06-19T08:38:34.621Z,96401.75
2019-06-19T08:41:01.153Z,96400.42
2019-06-19T08:43:27.121Z,96399.77
2019-06-19T08:45:52.981Z,96401.30
2019-06-19T08:48:18.810Z,96398.13
2019-06-19T08:50:44.674Z,96393.70
2019-06-19T08:53:10.516Z,96393.12
2019-06-19T08:55:36.352Z,96395.81
2019-06-19T08:58:02.292Z,96401.48
2019-06-19T09:00:28.647Z,96393.82
2019-06-19T09:02:54.525Z,96395.10
2019-06-19T09:05:20.437Z,96394.82
2019-06-19T09:07:46.310Z,96386.14
2019-06-19T09:10:17.857Z,96388.92
2019-06-19T09:12:43.702Z,96393.70
2019-06-19T09:15:11.253Z,96385.32
2019-06-19T09:17:37.280Z,96383.06
2019-06-19T09:20:03.543Z,96381.08
2019-06-19T09:22:29.356Z,96383.77
2019-06-19T09:24:55.226Z,96387.25
2019-06-19T09:27:21.072Z,96385.09
2019-06-19T09:29:46.925Z,96386.93
2019-06-19T09:32:12.760Z,96382.92
2019-06-19T09:34:50.323Z,96384.12
2019-06-19T09:37:06.449Z,96387.28
2019-06-19T09:39:32.309Z,96386.55
2019-06-19T09:41:58.241Z,96385.19
2019-06-19T09:44:24.080Z,96385.59
2019-06-19T09:46:49.938Z,96385.91
2019-06-19T09:49:15.799Z,96380.73
2019-06-19T09:51:41.665Z,96383.36
2019-06-19T09:54:07.496Z,96381.59
2019-06-19T09:56:33.403Z,96381.11
2019-06-19T09:58:59.220Z,96376.19
2019-06-19T10:01:25.089Z,96372.88
2019-06-19T10:03:51.010Z,96375.66
2019-06-19T10:06:16.870Z,96379.23
2019-06-19T10:08:42.871Z,96375.42
2019-06-19T10:11:08.750Z,96374.58
2019-06-19T10:13:34.580Z,96375.98
2019-06-19T10:16:02.412Z,96370.78
2019-06-19T10:18:28.292Z,96367.63
2019-06-19T10:20:54.151Z,96368.30
2019-06-19T10:23:19.989Z,96368.72
2019-06-19T10:25:45.841Z,96370.11
2019-06-19T10:28:11.682Z,96375.59
2019-06-19T10:30:37.937Z,96372.16
2019-06-19T10:33:04.271Z,96370.17
2019-06-19T10:35:30.198Z,96367.30
2019-06-19T10:37:56.029Z,96369.50
2019-06-19T10:40:21.973Z,96368.20
2019-06-19T10:42:47.808Z,96372.64
2019-06-19T10:45:13.663Z,96367.33
2019-06-19T10:47:39.544Z,96359.66
2019-06-19T10:50:05.762Z,96360.12
2019-06-19T10:52:31.597Z,96355.92
2019-06-19T10:54:57.467Z,96361.55
2019-06-19T10:57:23.807Z,96366.09
2019-06-19T10:59:49.677Z,96366.85
2019-06-19T11:02:15.502Z,96368.01
2019-06-19T11:04:41.373Z,96367.55
2019-06-19T11:07:07.393Z,96373.86
2019-06-19T11:09:33.224Z,96371.11
2019-06-19T11:11:59.097Z,96365.50
2019-06-19T11:14:25.052Z,96364.87
2019-06-19T11:16:50.938Z,96363.81
2019-06-19T11:19:16.915Z,96364.06
2019-06-19T11:21:42.854Z,96366.13
2019-06-19T11:24:08.686Z,96363.41
2019-06-19T11:26:34.625Z,96358.42
2019-06-19T11:29:00.479Z,96359.67
2019-06-19T11:31:26.318Z,96358.66
2019-06-19T11:33:52.237Z,96350.17
2019-06-19T11:36:18.140Z,96350.99
2019-06-19T11:38:44.017Z,96352.09
2019-06-19T11:41:10.114Z,96350.47
2019-06-19T11:43:36.055Z,96337.25
2019-06-19T11:46:01.966Z,96349.17
2019-06-19T11:48:27.867Z,96343.45
2019-06-19T11:50:53.719Z,96345.88
2019-06-19T11:53:20.462Z,96344.01
2019-06-19T11:55:46.430Z,96342.20
2019-06-19T11:58:12.251Z,96336.85
2019-06-19T12:00:38.220Z,96341.35
2019-06-19T12:03:04.168Z,96336.59
2019-06-19T12:05:30.038Z,96337.80
2019-06-19T12:07:55.878Z,96331.66
2019-06-19T12:10:21.726Z,96339.23
2019-06-19T12:12:47.576Z,96334.04
2019-06-19T12:15:13.511Z,96333.28
2019-06-19T12:17:39.355Z,96336.25
2019-06-19T12:20:07.530Z,96331.80
2019-06-19T12:22:33.392Z,96325.83
2019-06-19T12:24:59.235Z,96321.79
2019-06-19T12:27:25.087Z,96316.97
2019-06-19T12:30:05.375Z,96310.97
2019-06-19T12:32:18.692Z,96303.36
2019-06-19T12:34:44.518Z,96301.54
2019-06-19T12:37:10.459Z,96291.80
2019-06-19T12:39:36.296Z,96295.27
2019-06-19T12:42:02.398Z,96287.98
2019-06-19T12:44:28.405Z,96291.93
2019-06-19T12:46:54.256Z,96276.72
2019-06-19T12:49:20.083Z,96286.99
2019-06-19T12:51:45.942Z,96281.90
2019-06-19T12:54:12.039Z,96281.41
2019-06-19T12:56:38.171Z,96272.65
2019-06-19T12:59:04.158Z,96277.12
2019-06-19T13:01:29.991Z,96272.13
2019-06-19T13:03:55.841Z,96270.92
2019-06-19T13:06:21.725Z,96268.70
2019-06-19T13:08:47.604Z,96266.20
2019-06-19T13:11:13.455Z,96264.11
2019-06-19T13:13:39.304Z,96256.20
2019-06-19T13:16:05.181Z,96258.09
2019-06-19T13:18:31.026Z,96265.44
2019-06-19T13:20:56.863Z,96268.56
2019-06-19T13:23:22.707Z,96260.98
2019-06-19T13:25:48.539Z,96255.77
2019-06-19T13:28:14.375Z,96247.36
2019-06-19T13:30:40.219Z,96211.56
2019-06-19T13:33:06.071Z,96242.75
2019-06-19T13:35:32.071Z,96240.77
2019-06-19T13:37:57.883Z,96250.52
2019-06-19T13:40:23.949Z,96235.80
2019-06-19T13:42:49.799Z,96233.58
2019-06-19T13:45:15.939Z,96237.86
2019-06-19T13:47:41.792Z,96231.89
2019-06-19T13:50:08.753Z,96221.45
2019-06-19T13:52:34.903Z,96218.98
2019-06-19T13:55:00.743Z,96221.13
2019-06-19T13:57:26.599Z,96216.73
2019-06-19T13:59:52.443Z,96209.17
2019-06-19T14:02:18.298Z,96213.76
2019-06-19T14:04:44.141Z,96219.11
2019-06-19T14:07:19.714Z,96205.98
2019-06-19T14:09:37.763Z,96207.81
2019-06-19T14:12:03.714Z,96206.28
2019-06-19T14:14:29.578Z,96206.53
2019-06-19T14:16:55.428Z,96211.50
2019-06-19T14:19:21.268Z,96206.23
2019-06-19T14:21:47.097Z,96201.91
2019-06-19T14:24:12.945Z,96197.02
2019-06-19T14:26:38.803Z,96199.34
2019-06-19T14:29:04.650Z,96190.91
2019-06-19T14:31:30.496Z,96183.28
2019-06-19T14:33:56.347Z,96177.78
2019-06-19T14:36:22.220Z,96178.60
2019-06-19T14:38:48.051Z,96185.37
2019-06-19T14:41:13.994Z,96186.83
2019-06-19T14:43:39.852Z,96175.88
2019-06-19T14:46:05.821Z,96175.17
2019-06-19T14:48:31.651Z,96171.06
2019-06-19T14:50:57.503Z,96167.61
2019-06-19T14:53:23.469Z,96166.06
2019-06-19T14:55:49.317Z,96161.96
2019-06-19T14:58:15.177Z,96166.66
2019-06-19T15:00:52.675Z,96160.16
2019-06-19T15:03:18.549Z,96157.09
2019-06-19T15:05:44.401Z,96152.27
2019-06-19T15:08:10.266Z,96153.80
2019-06-19T15:10:36.112Z,96150.25
2019-06-19T15:13:01.994Z,96148.58
2019-06-19T15:15:27.835Z,96152.24
2019-06-19T15:17:53.673Z,96144.27
2019-06-19T15:20:19.519Z,96149.02
2019-06-19T15:22:45.369Z,96146.09
2019-06-19T15:25:11.216Z,96143.09
2019-06-19T15:27:37.961Z,96136.56
2019-06-19T15:30:05.859Z,96132.36
2019-06-19T15:32:31.741Z,96128.26
2019-06-19T15:34:57.682Z,96128.19
2019-06-19T15:37:23.512Z,96130.27
2019-06-19T15:39:53.111Z,96122.03
2019-06-19T15:42:17.117Z,96117.35
2019-06-19T15:44:42.969Z,96118.55
2019-06-19T15:47:08.841Z,96116.42
2019-06-19T15:49:34.651Z,96120.43
2019-06-19T15:52:00.493Z,96118.13
2019-06-19T15:54:26.363Z,96115.70
2019-06-19T15:56:52.261Z,96113.30
2019-06-19T15:59:18.187Z,96117.85
2019-06-19T16:01:44.034Z,96110.55
2019-06-19T16:04:09.888Z,96113.44
2019-06-19T16:06:35.722Z,96107.53
2019-06-19T16:09:01.585Z,96104.55
2019-06-19T16:11:27.524Z,96099.00
2019-06-19T16:13:53.420Z,96105.76
2019-06-19T16:16:19.266Z,96099.16
2019-06-19T16:18:45.109Z,96098.18
2019-06-19T16:21:10.961Z,96099.61
2019-06-19T16:23:36.840Z,96090.63
2019-06-19T16:26:02.783Z,96089.84
2019-06-19T16:28:28.621Z,96092.32
2019-06-19T16:30:54.471Z,96096.75
2019-06-19T16:33:20.384Z,96090.30
2019-06-19T16:35:46.865Z,96092.83
2019-06-19T16:38:12.710Z,96093.39
2019-06-19T16:40:38.582Z,96091.08
2019-06-19T16:43:04.503Z,96094.95
2019-06-19T16:45:30.350Z,96099.40
2019-06-19T16:47:56.232Z,96096.67
2019-06-19T16:50:22.055Z,96098.91
2019-06-19T16:52:47.914Z,96097.77
2019-06-19T16:55:13.765Z,96095.03
2019-06-19T16:57:39.603Z,96094.02
2019-06-19T17:00:07.770Z,96094.95
2019-06-19T17:02:33.579Z,96094.65
2019-06-19T17:04:59.421Z,96079.39
2019-06-19T17:07:25.237Z,96089.28
2019-06-19T17:09:51.096Z,96088.34
2019-06-19T17:12:16.926Z,96090.68
2019-06-19T17:14:42.780Z,96090.98
2019-06-19T17:17:08.742Z,96090.30
2019-06-19T17:19:34.599Z,96093.83
2019-06-19T17:22:00.483Z,96096.59
2019-06-19T17:24:26.377Z,96093.51
2019-06-19T17:26:52.214Z,96101.37
2019-06-19T17:29:18.061Z,96098.85
2019-06-19T17:31:43.893Z,96098.73
2019-06-19T17:34:09.732Z,96100.42
2019-06-19T17:36:35.563Z,96098.59
2019-06-19T17:39:01.434Z,96105.27
2019-06-19T17:41:27.465Z,96114.53
2019-06-19T17:43:53.314Z,96114.82
2019-06-19T17:46:19.139Z,96117.84
2019-06-19T17:48:44.994Z,96117.38
2019-06-19T17:51:10.828Z,96117.26
2019-06-19T17:53:36.679Z,96121.75
2019-06-19T17:56:02.623Z,96121.03
2019-06-19T17:58:28.456Z,96124.83
2019-06-19T18:00:54.318Z,96123.33
2019-06-19T18:03:20.159Z,96125.59
2019-06-19T18:05:46.030Z,96126.20
2019-06-19T18:08:11.872Z,96128.20
2019-06-19T18:10:37.786Z,96123.81
2019-06-19T18:13:03.757Z,96119.41
2019-06-19T18:15:29.610Z,96108.05
2019-06-19T18:17:55.478Z,96114.28
2019-06-19T18:20:21.317Z,96110.38
2019-06-19T18:22:47.150Z,96107.06
2019-06-19T18:25:13.211Z,96109.47
2019-06-19T18:27:39.072Z,96101.80
2019-06-19T18:30:10.102Z,96107.09
2019-06-19T18:32:35.945Z,96101.48
2019-06-19T18:35:02.099Z,96093.17
2019-06-19T18:37:27.935Z,96095.59
2019-06-19T18:39:55.297Z,96094.09
2019-06-19T18:42:21.345Z,96092.84
2019-06-19T18:44:47.271Z,96098.41
2019-06-19T18:47:13.113Z,96094.72
2019-06-19T18:49:38.993Z,96100.54
2019-06-19T18:52:04.831Z,96097.70
2019-06-19T18:54:30.681Z,96092.33
2019-06-19T18:56:56.515Z,96096.70
2019-06-19T18:59:22.366Z,96096.77
2019-06-19T19:01:48.342Z,96097.81
2019-06-19T19:04:14.289Z,96114.41
2019-06-19T19:06:40.473Z,96105.02
2019-06-19T19:09:06.301Z,96106.92
2019-06-19T19:11:32.174Z,96108.88
2019-06-19T19:13:58.056Z,96109.75
2019-06-19T19:16:23.959Z,96110.37
2019-06-19T19:18:50.042Z,96111.48
2019-06-19T19:21:17.310Z,96118.71
2019-06-19T19:23:43.356Z,96109.54
2019-06-19T19:26:09.221Z,96115.36
2019-06-19T19:28:35.137Z,96112.49
2019-06-19T19:31:01.089Z,96114.58
2019-06-19T19:33:27.063Z,96109.22
2019-06-19T19:35:53.013Z,96108.28
2019-06-19T19:38:19.024Z,96112.12
2019-06-19T19:40:48.633Z,96119.36
2019-06-19T19:43:12.607Z,96113.96
2019-06-19T19:45:38.910Z,96120.72
2019-06-19T19:48:05.023Z,96122.30
2019-06-19T19:50:31.136Z,96125.92
2019-06-19T19:53:05.590Z,96132.14
2019-06-19T19:55:26.150Z,96131.45
2019-06-19T19:57:52.292Z,96133.92
2019-06-19T20:00:28.237Z,96135.07
2019-06-19T20:02:54.386Z,96128.90
2019-06-19T20:05:20.260Z,96129.48
2019-06-19T20:07:46.116Z,96129.77
2019-06-19T20:10:12.103Z,96131.91
2019-06-19T20:12:38.031Z,96132.38
2019-06-19T20:15:04.913Z,96125.48
2019-06-19T20:17:30.996Z,96127.14
2019-06-19T20:19:56.874Z,96127.58
2019-06-19T20:22:22.747Z,96125.17
2019-06-19T20:24:48.615Z,96123.67
2019-06-19T20:27:15.351Z,96128.14
2019-06-19T20:29:41.304Z,96125.93
2019-06-19T20:32:07.473Z,96125.49
2019-06-19T20:34:33.323Z,96127.33
2019-06-19T20:36:59.195Z,96121.41
2019-06-19T20:39:25.060Z,96123.97
2019-06-19T20:41:51.040Z,96119.05
2019-06-19T20:44:16.943Z,96126.71
2019-06-19T20:46:42.816Z,96119.14
2019-06-19T20:49:08.829Z,96117.15
2019-06-19T20:51:34.765Z,96115.03
2019-06-19T20:54:00.656Z,96119.13
2019-06-19T20:56:26.495Z,96120.97
2019-06-19T20:59:01.933Z,96126.13
2019-06-19T21:01:20.454Z,96121.22
2019-06-19T21:03:46.310Z,96123.92
2019-06-19T21:06:12.211Z,96128.16
2019-06-19T21:08:38.144Z,96123.05
2019-06-19T21:11:19.369Z,96124.69
2019-06-19T21:13:31.756Z,96115.56
2019-06-19T21:16:02.726Z,96128.09
2019-06-19T21:18:27.334Z,96130.31
2019-06-19T21:20:53.403Z,96130.72
2019-06-19T21:23:19.236Z,96135.81
2019-06-19T21:25:45.153Z,96137.49
2019-06-19T21:28:11.204Z,96148.94
2019-06-19T21:30:37.033Z,96146.22
2019-06-19T21:33:02.876Z,96146.72
2019-06-19T21:35:28.875Z,96149.61
2019-06-19T21:37:54.725Z,96155.17
2019-06-19T21:40:20.804Z,96157.11
2019-06-19T21:42:46.661Z,96161.61
2019-06-19T21:45:12.675Z,96163.91
2019-06-19T21:47:38.719Z,96171.62
2019-06-19T21:50:05.356Z,96165.02
2019-06-19T21:52:31.454Z,96169.52
2019-06-19T21:54:57.288Z,96165.40
2019-06-19T21:57:23.250Z,96174.83
2019-06-19T21:59:49.173Z,96170.78
2019-06-19T22:02:15.217Z,96171.43
2019-06-19T22:04:41.096Z,96174.39
2019-06-19T22:07:06.931Z,96173.58
2019-06-19T22:09:33.003Z,96168.78
2019-06-19T22:11:58.874Z,96172.77
2019-06-19T22:14:25.013Z,96174.98
2019-06-19T22:16:50.884Z,96176.99
2019-06-19T22:19:16.732Z,96176.84
2019-06-19T22:21:42.573Z,96181.50
2019-06-19T22:24:08.414Z,96170.70
2019-06-19T22:26:34.261Z,96179.55
2019-06-19T22:29:00.083Z,96180.56
2019-06-19T22:31:25.957Z,96181.56
2019-06-19T22:33:51.782Z,96178.02
2019-06-19T22:36:17.621Z,96177.83
2019-06-19T22:38:43.481Z,96181.81
2019-06-19T22:41:09.308Z,96182.93
2019-06-19T22:43:35.157Z,96186.19
2019-06-19T22:46:01.093Z,96178.83
2019-06-19T22:48:26.954Z,96182.55
2019-06-19T22:50:52.815Z,96175.50
2019-06-19T22:53:18.617Z,96176.89
2019-06-19T22:55:44.452Z,96182.22
2019-06-19T22:58:10.405Z,96181.50
2019-06-19T23:00:36.333Z,96185.90
2019-06-19T23:03:20.927Z,96179.95
2019-06-19T23:05:54.229Z,96172.75
2019-06-19T23:08:19.430Z,96172.55
2019-06-19T23:10:45.262Z,96176.08
2019-06-19T23:13:11.131Z,96182.58
2019-06-19T23:15:36.957Z,96183.25
2019-06-19T23:18:03.122Z,96183.92
2019-06-19T23:20:28.936Z,96183.84
2019-06-19T23:22:54.821Z,96178.30
2019-06-19T23:25:20.659Z,96174.89
2019-06-19T23:27:46.523Z,96175.00
2019-06-19T23:30:12.547Z,96174.73
2019-06-19T23:32:38.385Z,96170.32
2019-06-19T23:35:04.215Z,96163.92
2019-06-19T23:37:30.050Z,96157.79
2019-06-19T23:39:55.911Z,96157.36
2019-06-19T23:42:23.342Z,96155.72
2019-06-19T23:44:49.296Z,96151.84
2019-06-19T23:47:15.111Z,96144.25
2019-06-19T23:49:40.956Z,96142.15
2019-06-19T23:52:06.800Z,96147.75
2019-06-19T23:54:32.655Z,96144.44
2019-06-19T23:56:58.486Z,96145.98
2019-06-19T23:59:24.345Z,96149.63
